sensor_id;sensor_type;location;lat;lon;timestamp;P1;durP1;ratioP1;P2;durP2;ratioP2
2041;SDS011;1026;51.460;7.252;2023-04-01T00:02:17;1.13;;;0.60;;
2041;SDS011;1026;51.460;7.252;2023-04-01T00:04:43;3.47;;;1.43;;
2041;SDS011;1026;51.460;7.252;2023-04-01T00:07:09;0.60;;;0.60;;
2041;SDS011;1026;51.460;7.252;2023-04-01T00:09:35;0.90;;;0.70;;
2041;SDS011;1026;51.460;7.252;2023-04-01T00:12:01;1.87;;;1.00;;
2041;SDS011;1026;51.460;7.252;2023-04-01T00:14:27;1.93;;;0.70;;
2041;SDS011;1026;51.460;7.252;2023-04-01T00:16:54;1.03;;;0.63;;
2041;SDS011;1026;51.460;7.252;2023-04-01T00:19:19;3.27;;;1.10;;
2041;SDS011;1026;51.460;7.252;2023-04-01T00:21:45;1.13;;;0.63;;
2041;SDS011;1026;51.460;7.252;2023-04-01T00:24:11;2.50;;;0.73;;
2041;SDS011;1026;51.460;7.252;2023-04-01T00:26:37;5.20;;;0.83;;
2041;SDS011;1026;51.460;7.252;2023-04-01T00:29:03;4.20;;;1.00;;
2041;SDS011;1026;51.460;7.252;2023-04-01T00:31:28;2.53;;;1.33;;
2041;SDS011;1026;51.460;7.252;2023-04-01T00:33:55;0.80;;;0.80;;
2041;SDS011;1026;51.460;7.252;2023-04-01T00:36:26;1.23;;;1.13;;
2041;SDS011;1026;51.460;7.252;2023-04-01T00:38:52;1.20;;;0.73;;
2041;SDS011;1026;51.460;7.252;2023-04-01T00:41:18;1.03;;;0.90;;
2041;SDS011;1026;51.460;7.252;2023-04-01T00:43:47;0.80;;;0.80;;
2041;SDS011;1026;51.460;7.252;2023-04-01T00:46:15;2.33;;;0.70;;
2041;SDS011;1026;51.460;7.252;2023-04-01T00:48:49;1.37;;;0.87;;
2041;SDS011;1026;51.460;7.252;2023-04-01T00:51:19;1.43;;;0.80;;
2041;SDS011;1026;51.460;7.252;2023-04-01T00:53:48;3.00;;;1.27;;
2041;SDS011;1026;51.460;7.252;2023-04-01T00:56:18;1.83;;;0.83;;
2041;SDS011;1026;51.460;7.252;2023-04-01T00:58:48;1.27;;;0.90;;
2041;SDS011;1026;51.460;7.252;2023-04-01T01:01:20;1.77;;;0.80;;
2041;SDS011;1026;51.460;7.252;2023-04-01T01:03:47;1.10;;;0.77;;
2041;SDS011;1026;51.460;7.252;2023-04-01T01:09:13;1.23;;;0.80;;
2041;SDS011;1026;51.460;7.252;2023-04-01T01:11:53;1.00;;;0.87;;
2041;SDS011;1026;51.460;7.252;2023-04-01T01:14:36;1.27;;;0.80;;
2041;SDS011;1026;51.460;7.252;2023-04-01T01:17:18;1.00;;;0.83;;
2041;SDS011;1026;51.460;7.252;2023-04-01T01:25:38;0.90;;;0.80;;
2041;SDS011;1026;51.460;7.252;2023-04-01T01:28:32;0.80;;;0.67;;
2041;SDS011;1026;51.460;7.252;2023-04-01T01:31:36;0.90;;;0.67;;
2041;SDS011;1026;51.460;7.252;2023-04-01T01:36:35;0.90;;;0.80;;
2041;SDS011;1026;51.460;7.252;2023-04-01T01:39:04;1.17;;;0.93;;
2041;SDS011;1026;51.460;7.252;2023-04-01T01:41:35;0.77;;;0.70;;
2041;SDS011;1026;51.460;7.252;2023-04-01T01:44:04;2.60;;;1.23;;
2041;SDS011;1026;51.460;7.252;2023-04-01T01:46:33;0.73;;;0.73;;
2041;SDS011;1026;51.460;7.252;2023-04-01T01:48:59;0.67;;;0.67;;
2041;SDS011;1026;51.460;7.252;2023-04-01T01:51:27;1.53;;;0.80;;
2041;SDS011;1026;51.460;7.252;2023-04-01T01:53:53;1.43;;;0.70;;
2041;SDS011;1026;51.460;7.252;2023-04-01T01:56:19;0.80;;;0.80;;
2041;SDS011;1026;51.460;7.252;2023-04-01T01:58:49;0.80;;;0.80;;
2041;SDS011;1026;51.460;7.252;2023-04-01T02:01:20;0.70;;;0.70;;
2041;SDS011;1026;51.460;7.252;2023-04-01T02:03:50;1.00;;;0.83;;
2041;SDS011;1026;51.460;7.252;2023-04-01T02:06:20;1.17;;;0.77;;
2041;SDS011;1026;51.460;7.252;2023-04-01T02:08:50;3.30;;;0.83;;
2041;SDS011;1026;51.460;7.252;2023-04-01T02:11:41;1.63;;;0.87;;
2041;SDS011;1026;51.460;7.252;2023-04-01T02:14:20;0.60;;;0.60;;
2041;SDS011;1026;51.460;7.252;2023-04-01T02:16:55;0.97;;;0.90;;
2041;SDS011;1026;51.460;7.252;2023-04-01T02:19:26;1.33;;;0.77;;
2041;SDS011;1026;51.460;7.252;2023-04-01T02:21:57;1.30;;;0.73;;
2041;SDS011;1026;51.460;7.252;2023-04-01T02:24:26;0.80;;;0.63;;
2041;SDS011;1026;51.460;7.252;2023-04-01T02:26:55;1.23;;;1.10;;
2041;SDS011;1026;51.460;7.252;2023-04-01T02:29:21;2.20;;;0.80;;
2041;SDS011;1026;51.460;7.252;2023-04-01T02:31:50;1.73;;;0.70;;
2041;SDS011;1026;51.460;7.252;2023-04-01T02:34:17;1.63;;;0.77;;
2041;SDS011;1026;51.460;7.252;2023-04-01T02:36:44;1.23;;;0.80;;
2041;SDS011;1026;51.460;7.252;2023-04-01T02:39:10;1.00;;;0.90;;
2041;SDS011;1026;51.460;7.252;2023-04-01T02:41:44;1.27;;;0.90;;
2041;SDS011;1026;51.460;7.252;2023-04-01T02:44:11;1.63;;;0.63;;
2041;SDS011;1026;51.460;7.252;2023-04-01T02:46:38;1.00;;;0.67;;
2041;SDS011;1026;51.460;7.252;2023-04-01T02:49:04;0.80;;;0.80;;
2041;SDS011;1026;51.460;7.252;2023-04-01T02:51:36;1.17;;;0.77;;
2041;SDS011;1026;51.460;7.252;2023-04-01T02:54:02;0.83;;;0.60;;
2041;SDS011;1026;51.460;7.252;2023-04-01T02:56:28;0.70;;;0.67;;
2041;SDS011;1026;51.460;7.252;2023-04-01T02:58:54;1.00;;;0.70;;
2041;SDS011;1026;51.460;7.252;2023-04-01T03:01:20;2.60;;;0.70;;
2041;SDS011;1026;51.460;7.252;2023-04-01T03:03:46;1.07;;;0.70;;
2041;SDS011;1026;51.460;7.252;2023-04-01T03:06:12;1.10;;;0.70;;
2041;SDS011;1026;51.460;7.252;2023-04-01T03:08:40;0.90;;;0.70;;
2041;SDS011;1026;51.460;7.252;2023-04-01T03:11:06;0.60;;;0.60;;
2041;SDS011;1026;51.460;7.252;2023-04-01T03:13:32;0.60;;;0.47;;
2041;SDS011;1026;51.460;7.252;2023-04-01T03:15:58;1.00;;;0.50;;
2041;SDS011;1026;51.460;7.252;2023-04-01T03:18:27;2.50;;;0.80;;
2041;SDS011;1026;51.460;7.252;2023-04-01T03:20:52;0.50;;;0.50;;
2041;SDS011;1026;51.460;7.252;2023-04-01T03:23:18;0.60;;;0.53;;
2041;SDS011;1026;51.460;7.252;2023-04-01T03:25:46;0.70;;;0.60;;
2041;SDS011;1026;51.460;7.252;2023-04-01T03:28:15;0.73;;;0.50;;
2041;SDS011;1026;51.460;7.252;2023-04-01T03:30:47;2.80;;;0.90;;
2041;SDS011;1026;51.460;7.252;2023-04-01T03:33:25;0.73;;;0.50;;
2041;SDS011;1026;51.460;7.252;2023-04-01T03:35:51;0.90;;;0.47;;
2041;SDS011;1026;51.460;7.252;2023-04-01T03:38:17;0.60;;;0.57;;
2041;SDS011;1026;51.460;7.252;2023-04-01T03:40:43;0.60;;;0.53;;
2041;SDS011;1026;51.460;7.252;2023-04-01T03:43:09;0.50;;;0.50;;
2041;SDS011;1026;51.460;7.252;2023-04-01T03:45:36;1.10;;;0.70;;
2041;SDS011;1026;51.460;7.252;2023-04-01T03:48:08;0.80;;;0.80;;
2041;SDS011;1026;51.460;7.252;2023-04-01T03:50:34;1.20;;;0.77;;
2041;SDS011;1026;51.460;7.252;2023-04-01T03:53:00;0.67;;;0.57;;
2041;SDS011;1026;51.460;7.252;2023-04-01T03:55:26;1.07;;;0.50;;
2041;SDS011;1026;51.460;7.252;2023-04-01T03:57:51;1.50;;;0.70;;
2041;SDS011;1026;51.460;7.252;2023-04-01T04:00:17;0.77;;;0.77;;
2041;SDS011;1026;51.460;7.252;2023-04-01T04:02:43;1.03;;;0.70;;
2041;SDS011;1026;51.460;7.252;2023-04-01T04:05:09;1.47;;;0.50;;
2041;SDS011;1026;51.460;7.252;2023-04-01T04:07:35;0.50;;;0.50;;
2041;SDS011;1026;51.460;7.252;2023-04-01T04:10:04;0.70;;;0.70;;
2041;SDS011;1026;51.460;7.252;2023-04-01T04:12:33;0.67;;;0.60;;
2041;SDS011;1026;51.460;7.252;2023-04-01T04:14:59;1.50;;;0.70;;
2041;SDS011;1026;51.460;7.252;2023-04-01T04:17:25;0.50;;;0.50;;
2041;SDS011;1026;51.460;7.252;2023-04-01T04:19:51;0.60;;;0.60;;
2041;SDS011;1026;51.460;7.252;2023-04-01T04:22:16;2.70;;;0.60;;
2041;SDS011;1026;51.460;7.252;2023-04-01T04:24:47;0.70;;;0.50;;
2041;SDS011;1026;51.460;7.252;2023-04-01T04:27:12;0.70;;;0.50;;
2041;SDS011;1026;51.460;7.252;2023-04-01T04:29:38;0.60;;;0.50;;
2041;SDS011;1026;51.460;7.252;2023-04-01T04:32:04;0.40;;;0.40;;
2041;SDS011;1026;51.460;7.252;2023-04-01T04:34:30;3.13;;;0.60;;
2041;SDS011;1026;51.460;7.252;2023-04-01T04:36:56;1.10;;;0.50;;
2041;SDS011;1026;51.460;7.252;2023-04-01T04:39:25;0.77;;;0.60;;
2041;SDS011;1026;51.460;7.252;2023-04-01T04:41:51;0.60;;;0.60;;
2041;SDS011;1026;51.460;7.252;2023-04-01T04:44:16;0.50;;;0.50;;
2041;SDS011;1026;51.460;7.252;2023-04-01T04:46:42;0.40;;;0.40;;
2041;SDS011;1026;51.460;7.252;2023-04-01T04:49:08;0.70;;;0.60;;
2041;SDS011;1026;51.460;7.252;2023-04-01T04:51:33;0.50;;;0.50;;
2041;SDS011;1026;51.460;7.252;2023-04-01T04:54:01;0.60;;;0.50;;
2041;SDS011;1026;51.460;7.252;2023-04-01T04:56:27;0.60;;;0.60;;
2041;SDS011;1026;51.460;7.252;2023-04-01T04:58:53;0.70;;;0.60;;
2041;SDS011;1026;51.460;7.252;2023-04-01T05:01:19;1.23;;;1.13;;
2041;SDS011;1026;51.460;7.252;2023-04-01T05:03:45;1.37;;;0.60;;
2041;SDS011;1026;51.460;7.252;2023-04-01T05:06:12;1.03;;;0.50;;
2041;SDS011;1026;51.460;7.252;2023-04-01T05:08:39;0.50;;;0.40;;
2041;SDS011;1026;51.460;7.252;2023-04-01T05:11:07;1.07;;;0.50;;
2041;SDS011;1026;51.460;7.252;2023-04-01T05:13:35;0.60;;;0.50;;
2041;SDS011;1026;51.460;7.252;2023-04-01T05:16:07;1.10;;;0.60;;
2041;SDS011;1026;51.460;7.252;2023-04-01T05:18:33;0.60;;;0.50;;
2041;SDS011;1026;51.460;7.252;2023-04-01T05:20:59;0.63;;;0.63;;
2041;SDS011;1026;51.460;7.252;2023-04-01T05:23:25;1.43;;;0.50;;
2041;SDS011;1026;51.460;7.252;2023-04-01T05:25:50;0.70;;;0.70;;
2041;SDS011;1026;51.460;7.252;2023-04-01T05:28:18;0.50;;;0.50;;
2041;SDS011;1026;51.460;7.252;2023-04-01T05:30:44;0.50;;;0.40;;
2041;SDS011;1026;51.460;7.252;2023-04-01T05:33:11;0.60;;;0.47;;
2041;SDS011;1026;51.460;7.252;2023-04-01T05:35:38;0.60;;;0.50;;
2041;SDS011;1026;51.460;7.252;2023-04-01T05:38:05;0.67;;;0.67;;
2041;SDS011;1026;51.460;7.252;2023-04-01T05:40:31;0.60;;;0.60;;
2041;SDS011;1026;51.460;7.252;2023-04-01T05:42:57;0.70;;;0.50;;
2041;SDS011;1026;51.460;7.252;2023-04-01T05:45:24;0.67;;;0.50;;
2041;SDS011;1026;51.460;7.252;2023-04-01T05:47:49;1.40;;;1.40;;
2041;SDS011;1026;51.460;7.252;2023-04-01T05:50:15;1.80;;;0.73;;
2041;SDS011;1026;51.460;7.252;2023-04-01T05:52:41;1.70;;;0.67;;
2041;SDS011;1026;51.460;7.252;2023-04-01T05:55:07;0.70;;;0.70;;
2041;SDS011;1026;51.460;7.252;2023-04-01T05:57:33;0.50;;;0.50;;
2041;SDS011;1026;51.460;7.252;2023-04-01T05:59:59;1.47;;;0.80;;
2041;SDS011;1026;51.460;7.252;2023-04-01T06:02:25;1.00;;;0.60;;
2041;SDS011;1026;51.460;7.252;2023-04-01T06:04:53;0.50;;;0.50;;
2041;SDS011;1026;51.460;7.252;2023-04-01T06:07:28;1.00;;;0.90;;
2041;SDS011;1026;51.460;7.252;2023-04-01T06:09:54;0.50;;;0.50;;
2041;SDS011;1026;51.460;7.252;2023-04-01T06:12:27;0.67;;;0.67;;
2041;SDS011;1026;51.460;7.252;2023-04-01T06:23:28;0.70;;;0.70;;
2041;SDS011;1026;51.460;7.252;2023-04-01T06:31:38;0.50;;;0.50;;
2041;SDS011;1026;51.460;7.252;2023-04-01T06:34:29;0.60;;;0.60;;
2041;SDS011;1026;51.460;7.252;2023-04-01T06:42:30;0.50;;;0.50;;
2041;SDS011;1026;51.460;7.252;2023-04-01T06:48:16;0.50;;;0.40;;
2041;SDS011;1026;51.460;7.252;2023-04-01T06:51:11;0.60;;;0.53;;
2041;SDS011;1026;51.460;7.252;2023-04-01T06:56:30;0.43;;;0.40;;
2041;SDS011;1026;51.460;7.252;2023-04-01T06:58:58;0.90;;;0.53;;
2041;SDS011;1026;51.460;7.252;2023-04-01T07:01:29;0.40;;;0.40;;
2041;SDS011;1026;51.460;7.252;2023-04-01T07:04:24;0.67;;;0.50;;
2041;SDS011;1026;51.460;7.252;2023-04-01T07:06:54;0.80;;;0.70;;
2041;SDS011;1026;51.460;7.252;2023-04-01T07:09:49;0.63;;;0.63;;
2041;SDS011;1026;51.460;7.252;2023-04-01T07:12:40;2.10;;;0.80;;
2041;SDS011;1026;51.460;7.252;2023-04-01T07:15:17;0.70;;;0.70;;
2041;SDS011;1026;51.460;7.252;2023-04-01T07:18:18;0.87;;;0.87;;
2041;SDS011;1026;51.460;7.252;2023-04-01T07:20:49;3.13;;;0.80;;
2041;SDS011;1026;51.460;7.252;2023-04-01T07:23:20;0.50;;;0.50;;
2041;SDS011;1026;51.460;7.252;2023-04-01T07:25:53;5.40;;;0.80;;
2041;SDS011;1026;51.460;7.252;2023-04-01T07:28:23;0.77;;;0.77;;
2041;SDS011;1026;51.460;7.252;2023-04-01T07:30:54;1.00;;;0.90;;
2041;SDS011;1026;51.460;7.252;2023-04-01T07:42:01;0.70;;;0.70;;
2041;SDS011;1026;51.460;7.252;2023-04-01T07:44:39;0.60;;;0.60;;
2041;SDS011;1026;51.460;7.252;2023-04-01T07:50:21;0.83;;;0.70;;
2041;SDS011;1026;51.460;7.252;2023-04-01T07:55:30;0.60;;;0.60;;
2041;SDS011;1026;51.460;7.252;2023-04-01T07:58:10;0.63;;;0.63;;
2041;SDS011;1026;51.460;7.252;2023-04-01T08:01:01;0.90;;;0.73;;
2041;SDS011;1026;51.460;7.252;2023-04-01T08:03:56;2.30;;;0.70;;
2041;SDS011;1026;51.460;7.252;2023-04-01T08:09:31;0.60;;;0.60;;
2041;SDS011;1026;51.460;7.252;2023-04-01T08:12:12;0.80;;;0.70;;
2041;SDS011;1026;51.460;7.252;2023-04-01T08:25:48;0.70;;;0.70;;
2041;SDS011;1026;51.460;7.252;2023-04-01T08:28:22;0.80;;;0.80;;
2041;SDS011;1026;51.460;7.252;2023-04-01T08:30:52;1.00;;;0.80;;
2041;SDS011;1026;51.460;7.252;2023-04-01T08:33:25;1.10;;;0.97;;
2041;SDS011;1026;51.460;7.252;2023-04-01T08:35:56;0.87;;;0.80;;
2041;SDS011;1026;51.460;7.252;2023-04-01T08:38:44;0.90;;;0.90;;
2041;SDS011;1026;51.460;7.252;2023-04-01T08:41:27;0.90;;;0.90;;
2041;SDS011;1026;51.460;7.252;2023-04-01T08:46:51;1.23;;;1.17;;
2041;SDS011;1026;51.460;7.252;2023-04-01T08:49:56;0.70;;;0.70;;
2041;SDS011;1026;51.460;7.252;2023-04-01T08:52:48;1.17;;;1.07;;
2041;SDS011;1026;51.460;7.252;2023-04-01T08:58:37;0.87;;;0.87;;
2041;SDS011;1026;51.460;7.252;2023-04-01T09:06:57;5.10;;;1.60;;
2041;SDS011;1026;51.460;7.252;2023-04-01T09:23:25;0.93;;;0.87;;
2041;SDS011;1026;51.460;7.252;2023-04-01T09:28:41;1.47;;;1.37;;
2041;SDS011;1026;51.460;7.252;2023-04-01T09:31:25;2.53;;;2.33;;
2041;SDS011;1026;51.460;7.252;2023-04-01T09:37:11;1.50;;;1.27;;
2041;SDS011;1026;51.460;7.252;2023-04-01T09:39:55;1.50;;;1.37;;
2041;SDS011;1026;51.460;7.252;2023-04-01T09:45:21;2.22;;;2.08;;
2041;SDS011;1026;51.460;7.252;2023-04-01T09:48:50;1.70;;;1.60;;
2041;SDS011;1026;51.460;7.252;2023-04-01T09:51:26;3.15;;;2.85;;
2041;SDS011;1026;51.460;7.252;2023-04-01T09:54:11;3.40;;;3.10;;
2041;SDS011;1026;51.460;7.252;2023-04-01T10:11:13;3.50;;;3.17;;
2041;SDS011;1026;51.460;7.252;2023-04-01T11:02:15;2.17;;;1.97;;
2041;SDS011;1026;51.460;7.252;2023-04-01T11:10:54;3.57;;;3.20;;
2041;SDS011;1026;51.460;7.252;2023-04-01T11:24:50;2.90;;;2.60;;
2041;SDS011;1026;51.460;7.252;2023-04-01T11:27:46;3.30;;;3.10;;
2041;SDS011;1026;51.460;7.252;2023-04-01T11:32:58;3.87;;;3.57;;
2041;SDS011;1026;51.460;7.252;2023-04-01T11:41:26;2.30;;;2.10;;
2041;SDS011;1026;51.460;7.252;2023-04-01T11:46:31;2.40;;;2.20;;
2041;SDS011;1026;51.460;7.252;2023-04-01T11:52:08;3.00;;;2.60;;
2041;SDS011;1026;51.460;7.252;2023-04-01T11:54:56;2.40;;;2.20;;
2041;SDS011;1026;51.460;7.252;2023-04-01T11:57:35;3.00;;;2.70;;
2041;SDS011;1026;51.460;7.252;2023-04-01T12:03:09;3.60;;;3.30;;
2041;SDS011;1026;51.460;7.252;2023-04-01T12:05:44;2.53;;;2.37;;
2041;SDS011;1026;51.460;7.252;2023-04-01T12:08:16;3.17;;;2.83;;
2041;SDS011;1026;51.460;7.252;2023-04-01T12:27:40;2.50;;;2.30;;
2041;SDS011;1026;51.460;7.252;2023-04-01T12:35:55;2.80;;;2.60;;
2041;SDS011;1026;51.460;7.252;2023-04-01T12:49:46;3.28;;;2.97;;
2041;SDS011;1026;51.460;7.252;2023-04-01T12:52:38;3.90;;;3.60;;
2041;SDS011;1026;51.460;7.252;2023-04-01T13:00:56;2.67;;;2.47;;
2041;SDS011;1026;51.460;7.252;2023-04-01T13:19:25;4.90;;;4.50;;
2041;SDS011;1026;51.460;7.252;2023-04-01T13:22:08;4.43;;;4.03;;
2041;SDS011;1026;51.460;7.252;2023-04-01T13:27:14;3.27;;;3.00;;
2041;SDS011;1026;51.460;7.252;2023-04-01T13:29:49;2.20;;;2.10;;
2041;SDS011;1026;51.460;7.252;2023-04-01T13:32:28;3.87;;;3.57;;
2041;SDS011;1026;51.460;7.252;2023-04-01T13:35:13;5.00;;;4.50;;
2041;SDS011;1026;51.460;7.252;2023-04-01T13:43:22;3.87;;;3.57;;
2041;SDS011;1026;51.460;7.252;2023-04-01T13:48:42;4.40;;;3.37;;
2041;SDS011;1026;51.460;7.252;2023-04-01T13:57:23;2.33;;;2.17;;
2041;SDS011;1026;51.460;7.252;2023-04-01T14:09:11;4.50;;;4.10;;
2041;SDS011;1026;51.460;7.252;2023-04-01T14:14:21;5.20;;;4.77;;
2041;SDS011;1026;51.460;7.252;2023-04-01T14:17:14;4.37;;;4.00;;
2041;SDS011;1026;51.460;7.252;2023-04-01T14:22:52;2.77;;;2.57;;
2041;SDS011;1026;51.460;7.252;2023-04-01T14:25:48;2.97;;;2.77;;
2041;SDS011;1026;51.460;7.252;2023-04-01T14:34:03;3.63;;;3.33;;
2041;SDS011;1026;51.460;7.252;2023-04-01T14:36:43;3.70;;;3.40;;
2041;SDS011;1026;51.460;7.252;2023-04-01T14:47:54;3.40;;;2.77;;
2041;SDS011;1026;51.460;7.252;2023-04-01T14:50:20;3.63;;;3.33;;
2041;SDS011;1026;51.460;7.252;2023-04-01T14:52:53;3.27;;;2.97;;
2041;SDS011;1026;51.460;7.252;2023-04-01T14:55:44;3.37;;;3.00;;
2041;SDS011;1026;51.460;7.252;2023-04-01T14:58:16;3.80;;;3.50;;
2041;SDS011;1026;51.460;7.252;2023-04-01T15:00:55;4.47;;;4.07;;
2041;SDS011;1026;51.460;7.252;2023-04-01T15:03:30;3.27;;;3.07;;
2041;SDS011;1026;51.460;7.252;2023-04-01T15:06:13;3.90;;;3.60;;
2041;SDS011;1026;51.460;7.252;2023-04-01T15:11:34;3.87;;;3.50;;
2041;SDS011;1026;51.460;7.252;2023-04-01T15:14:22;3.67;;;3.37;;
2041;SDS011;1026;51.460;7.252;2023-04-01T15:25:39;3.37;;;3.07;;
2041;SDS011;1026;51.460;7.252;2023-04-01T15:28:12;3.80;;;3.50;;
2041;SDS011;1026;51.460;7.252;2023-04-01T15:36:44;4.70;;;4.10;;
2041;SDS011;1026;51.460;7.252;2023-04-01T15:39:23;3.83;;;3.53;;
2041;SDS011;1026;51.460;7.252;2023-04-01T15:47:41;4.20;;;3.90;;
2041;SDS011;1026;51.460;7.252;2023-04-01T15:53:00;4.10;;;3.80;;
2041;SDS011;1026;51.460;7.252;2023-04-01T15:55:42;3.47;;;3.17;;
2041;SDS011;1026;51.460;7.252;2023-04-01T15:58:33;5.00;;;4.27;;
2041;SDS011;1026;51.460;7.252;2023-04-01T16:01:14;2.90;;;2.70;;
2041;SDS011;1026;51.460;7.252;2023-04-01T16:03:52;3.70;;;3.20;;
2041;SDS011;1026;51.460;7.252;2023-04-01T16:06:41;4.17;;;3.77;;
2041;SDS011;1026;51.460;7.252;2023-04-01T16:14:54;3.33;;;3.03;;
2041;SDS011;1026;51.460;7.252;2023-04-01T16:17:58;3.33;;;3.10;;
2041;SDS011;1026;51.460;7.252;2023-04-01T16:20:25;4.07;;;3.30;;
2041;SDS011;1026;51.460;7.252;2023-04-01T16:26:05;5.03;;;4.63;;
2041;SDS011;1026;51.460;7.252;2023-04-01T16:28:50;3.80;;;3.50;;
2041;SDS011;1026;51.460;7.252;2023-04-01T16:34:04;3.57;;;3.27;;
2041;SDS011;1026;51.460;7.252;2023-04-01T16:36:35;2.83;;;2.63;;
2041;SDS011;1026;51.460;7.252;2023-04-01T16:39:15;4.30;;;3.80;;
2041;SDS011;1026;51.460;7.252;2023-04-01T16:44:49;4.07;;;3.77;;
2041;SDS011;1026;51.460;7.252;2023-04-01T16:47:19;3.47;;;3.17;;
2041;SDS011;1026;51.460;7.252;2023-04-01T16:49:52;2.60;;;2.40;;
2041;SDS011;1026;51.460;7.252;2023-04-01T16:53:25;2.90;;;2.70;;
2041;SDS011;1026;51.460;7.252;2023-04-01T16:55:17;3.67;;;3.37;;
2041;SDS011;1026;51.460;7.252;2023-04-01T16:57:55;3.20;;;3.00;;
2041;SDS011;1026;51.460;7.252;2023-04-01T17:00:28;2.53;;;2.33;;
2041;SDS011;1026;51.460;7.252;2023-04-01T17:05:36;4.67;;;3.70;;
2041;SDS011;1026;51.460;7.252;2023-04-01T17:08:26;3.47;;;3.20;;
2041;SDS011;1026;51.460;7.252;2023-04-01T17:10:56;4.20;;;3.80;;
2041;SDS011;1026;51.460;7.252;2023-04-01T17:13:34;2.90;;;2.63;;
2041;SDS011;1026;51.460;7.252;2023-04-01T17:16:28;3.53;;;3.23;;
2041;SDS011;1026;51.460;7.252;2023-04-01T17:19:14;3.87;;;3.57;;
2041;SDS011;1026;51.460;7.252;2023-04-01T17:24:41;3.60;;;3.37;;
2041;SDS011;1026;51.460;7.252;2023-04-01T17:33:14;3.00;;;2.70;;
2041;SDS011;1026;51.460;7.252;2023-04-01T17:41:08;3.73;;;3.33;;
2041;SDS011;1026;51.460;7.252;2023-04-01T17:43:53;4.20;;;3.80;;
2041;SDS011;1026;51.460;7.252;2023-04-01T17:47:02;3.93;;;3.63;;
2041;SDS011;1026;51.460;7.252;2023-04-01T17:51:51;3.87;;;3.57;;
2041;SDS011;1026;51.460;7.252;2023-04-01T17:54:36;3.50;;;3.00;;
2041;SDS011;1026;51.460;7.252;2023-04-01T18:03:11;4.27;;;3.87;;
2041;SDS011;1026;51.460;7.252;2023-04-01T18:06:01;3.17;;;2.87;;
2041;SDS011;1026;51.460;7.252;2023-04-01T18:09:00;5.60;;;4.73;;
2041;SDS011;1026;51.460;7.252;2023-04-01T18:19:55;3.43;;;3.20;;
2041;SDS011;1026;51.460;7.252;2023-04-01T18:25:22;5.20;;;4.70;;
2041;SDS011;1026;51.460;7.252;2023-04-01T18:30:36;5.83;;;5.33;;
2041;SDS011;1026;51.460;7.252;2023-04-01T18:33:09;3.80;;;3.50;;
2041;SDS011;1026;51.460;7.252;2023-04-01T18:38:12;3.83;;;3.33;;
2041;SDS011;1026;51.460;7.252;2023-04-01T18:40:47;5.27;;;4.77;;
2041;SDS011;1026;51.460;7.252;2023-04-01T18:43:21;12.83;;;4.57;;
2041;SDS011;1026;51.460;7.252;2023-04-01T18:46:05;3.37;;;3.07;;
2041;SDS011;1026;51.460;7.252;2023-04-01T18:49:06;6.70;;;5.40;;
2041;SDS011;1026;51.460;7.252;2023-04-01T18:51:57;4.20;;;3.80;;
2041;SDS011;1026;51.460;7.252;2023-04-01T18:54:32;3.50;;;3.20;;
2041;SDS011;1026;51.460;7.252;2023-04-01T18:57:13;6.30;;;5.53;;
2041;SDS011;1026;51.460;7.252;2023-04-01T18:59:42;3.90;;;3.60;;
2041;SDS011;1026;51.460;7.252;2023-04-01T19:02:22;8.17;;;7.33;;
2041;SDS011;1026;51.460;7.252;2023-04-01T19:07:41;6.83;;;6.23;;
2041;SDS011;1026;51.460;7.252;2023-04-01T19:12:55;5.87;;;4.00;;
2041;SDS011;1026;51.460;7.252;2023-04-01T19:15:41;4.23;;;3.83;;
2041;SDS011;1026;51.460;7.252;2023-04-01T19:18:23;3.47;;;3.17;;
2041;SDS011;1026;51.460;7.252;2023-04-01T19:26:11;3.30;;;3.03;;
2041;SDS011;1026;51.460;7.252;2023-04-01T19:28:46;3.60;;;3.40;;
2041;SDS011;1026;51.460;7.252;2023-04-01T19:34:26;3.17;;;2.90;;
2041;SDS011;1026;51.460;7.252;2023-04-01T19:37:10;2.67;;;2.47;;
2041;SDS011;1026;51.460;7.252;2023-04-01T19:42:43;7.07;;;3.50;;
2041;SDS011;1026;51.460;7.252;2023-04-01T19:45:26;6.07;;;2.50;;
2041;SDS011;1026;51.460;7.252;2023-04-01T19:56:25;3.27;;;2.97;;
2041;SDS011;1026;51.460;7.252;2023-04-01T19:59:19;2.87;;;2.67;;
2041;SDS011;1026;51.460;7.252;2023-04-01T20:01:59;3.13;;;2.93;;
2041;SDS011;1026;51.460;7.252;2023-04-01T20:04:51;2.77;;;2.60;;
2041;SDS011;1026;51.460;7.252;2023-04-01T20:07:24;2.33;;;2.13;;
2041;SDS011;1026;51.460;7.252;2023-04-01T20:09:59;2.27;;;2.17;;
2041;SDS011;1026;51.460;7.252;2023-04-01T20:18:08;2.43;;;2.23;;
2041;SDS011;1026;51.460;7.252;2023-04-01T20:20:39;2.63;;;2.43;;
2041;SDS011;1026;51.460;7.252;2023-04-01T20:23:26;2.07;;;1.97;;
2041;SDS011;1026;51.460;7.252;2023-04-01T20:26:07;4.13;;;2.10;;
2041;SDS011;1026;51.460;7.252;2023-04-01T20:28:44;1.97;;;1.87;;
2041;SDS011;1026;51.460;7.252;2023-04-01T20:31:27;2.27;;;2.07;;
2041;SDS011;1026;51.460;7.252;2023-04-01T20:36:52;2.80;;;2.60;;
2041;SDS011;1026;51.460;7.252;2023-04-01T20:39:31;2.47;;;2.27;;
2041;SDS011;1026;51.460;7.252;2023-04-01T20:42:23;2.20;;;2.10;;
2041;SDS011;1026;51.460;7.252;2023-04-01T20:53:15;3.23;;;2.87;;
2041;SDS011;1026;51.460;7.252;2023-04-01T20:58:46;3.40;;;3.20;;
2041;SDS011;1026;51.460;7.252;2023-04-01T21:06:37;4.07;;;3.77;;
2041;SDS011;1026;51.460;7.252;2023-04-01T21:12:00;4.50;;;4.10;;
2041;SDS011;1026;51.460;7.252;2023-04-01T21:17:34;5.03;;;4.63;;
2041;SDS011;1026;51.460;7.252;2023-04-01T21:20:07;4.17;;;3.87;;
2041;SDS011;1026;51.460;7.252;2023-04-01T21:23:02;5.10;;;4.70;;
2041;SDS011;1026;51.460;7.252;2023-04-01T21:31:27;4.60;;;4.20;;
2041;SDS011;1026;51.460;7.252;2023-04-01T21:48:03;4.00;;;3.70;;
2041;SDS011;1026;51.460;7.252;2023-04-01T21:50:54;3.43;;;3.13;;
2041;SDS011;1026;51.460;7.252;2023-04-01T21:54:21;3.07;;;2.87;;
2041;SDS011;1026;51.460;7.252;2023-04-01T21:56:29;3.77;;;3.47;;
2041;SDS011;1026;51.460;7.252;2023-04-01T21:59:21;3.80;;;3.50;;
2041;SDS011;1026;51.460;7.252;2023-04-01T22:05:09;3.10;;;2.90;;
2041;SDS011;1026;51.460;7.252;2023-04-01T22:11:10;3.27;;;2.97;;
2041;SDS011;1026;51.460;7.252;2023-04-01T22:16:18;4.40;;;3.93;;
2041;SDS011;1026;51.460;7.252;2023-04-01T22:24:33;3.30;;;3.07;;
2041;SDS011;1026;51.460;7.252;2023-04-01T22:27:21;4.27;;;3.97;;
2041;SDS011;1026;51.460;7.252;2023-04-01T22:32:50;4.00;;;3.70;;
2041;SDS011;1026;51.460;7.252;2023-04-01T22:35:32;4.13;;;3.83;;
2041;SDS011;1026;51.460;7.252;2023-04-01T22:38:23;4.10;;;3.70;;
2041;SDS011;1026;51.460;7.252;2023-04-01T22:41:23;3.67;;;3.40;;
2041;SDS011;1026;51.460;7.252;2023-04-01T22:44:07;4.40;;;4.00;;
2041;SDS011;1026;51.460;7.252;2023-04-01T22:49:35;4.63;;;4.23;;
2041;SDS011;1026;51.460;7.252;2023-04-01T22:52:40;6.07;;;5.57;;
2041;SDS011;1026;51.460;7.252;2023-04-01T22:55:12;5.97;;;4.90;;
2041;SDS011;1026;51.460;7.252;2023-04-01T22:58:04;4.40;;;4.00;;
2041;SDS011;1026;51.460;7.252;2023-04-01T23:01:12;5.33;;;4.93;;
2041;SDS011;1026;51.460;7.252;2023-04-01T23:03:44;4.30;;;3.90;;
2041;SDS011;1026;51.460;7.252;2023-04-01T23:06:17;3.97;;;3.67;;
2041;SDS011;1026;51.460;7.252;2023-04-01T23:34:00;3.77;;;3.50;;
2041;SDS011;1026;51.460;7.252;2023-04-01T23:36:43;4.70;;;4.40;;
2041;SDS011;1026;51.460;7.252;2023-04-01T23:41:59;5.00;;;4.60;;
2041;SDS011;1026;51.460;7.252;2023-04-01T23:44:29;4.97;;;4.30;;
2041;SDS011;1026;51.460;7.252;2023-04-01T23:46:57;5.17;;;4.77;;
2041;SDS011;1026;51.460;7.252;2023-04-01T23:49:30;4.60;;;4.23;;
2041;SDS011;1026;51.460;7.252;2023-04-01T23:52:13;4.43;;;4.03;;
2041;SDS011;1026;51.460;7.252;2023-04-01T23:54:53;5.20;;;4.80;;
2041;SDS011;1026;51.460;7.252;2023-04-01T23:57:37;5.77;;;5.37;;
